Time;durP1;ratioP1;P1;durP2;ratioP2;P2;SDS_P1;SDS_P2;PMS_P1;PMS_P2;Temp;Humidity;BMP_temperature;BMP_pressure;BME280_temperature;BME280_humidity;BME280_pressure;Samples;Min_cycle;Max_cycle;Signal;HPM_P1;HPM_P2
2022/08/16 00:00:40;;;;;;;9.88;6.03;;;22.00;99.90;;;;;;5006784;28;20120;-73
2022/08/16 00:03:08;;;;;;;8.07;6.18;;;22.00;99.90;;;;;;5026249;28;20176;-73
2022/08/16 00:05:34;;;;;;;9.43;7.00;;;22.00;99.90;;;;;;5004023;28;20046;-73
2022/08/16 00:08:00;;;;;;;8.98;6.45;;;22.00;99.90;;;;;;5006507;28;20033;-73
2022/08/16 00:10:27;;;;;;;;;;;22.00;99.90;;;;;;5008991;28;20044;-73
2022/08/16 00:12:53;;;;;;;;;;;21.90;99.90;;;;;;5017942;28;20287;-73
2022/08/16 00:15:25;;;;;;;9.27;6.13;;;21.90;99.90;;;;;;5021411;28;19936;-73
2022/08/16 00:17:51;;;;;;;10.98;6.68;;;21.90;99.90;;;;;;5022111;28;20534;-73
2022/08/16 00:20:17;;;;;;;;;;;21.90;99.90;;;;;;5010586;28;20044;-73
2022/08/16 00:22:44;;;;;;;9.68;6.80;;;21.90;99.90;;;;;;5003580;28;19920;-73
2022/08/16 00:25:13;;;;;;;9.82;6.72;;;21.90;99.90;;;;;;5020207;28;20169;-73
2022/08/16 00:27:40;;;;;;;7.22;5.57;;;21.90;99.90;;;;;;5004339;28;20080;-73
2022/08/16 00:30:07;;;;;;;8.90;6.80;;;21.90;99.90;;;;;;5023165;28;20140;-73
2022/08/16 00:32:33;;;;;;;9.65;6.72;;;21.90;99.90;;;;;;5023102;28;20056;-73
2022/08/16 00:34:59;;;;;;;;;;;21.90;99.90;;;;;;5022934;28;20041;-73
2022/08/16 00:37:25;;;;;;;10.45;6.35;;;21.90;99.90;;;;;;5004315;28;19920;-73
2022/08/16 00:39:53;;;;;;;10.32;7.15;;;21.90;99.90;;;;;;5023031;28;20049;-73
2022/08/16 00:42:19;;;;;;;10.88;6.40;;;21.80;99.90;;;;;;5023274;28;20042;-73
2022/08/16 00:44:52;;;;;;;9.70;7.20;;;21.90;99.90;;;;;;5005781;28;20380;-74
2022/08/16 00:47:18;;;;;;;8.35;6.25;;;21.90;99.90;;;;;;5024748;28;20813;-74
2022/08/16 00:49:44;;;;;;;9.85;6.88;;;21.80;99.90;;;;;;5013237;28;20044;-73
2022/08/16 00:52:10;;;;;;;;;;;21.80;99.90;;;;;;5031348;28;20135;-73
2022/08/16 00:54:36;;;;;;;10.65;6.70;;;21.80;99.90;;;;;;5029989;28;20418;-73
2022/08/16 00:57:02;;;;;;;13.02;6.28;;;21.80;99.90;;;;;;5014154;28;20100;-73
2022/08/16 00:59:32;;;;;;;9.45;6.60;;;21.80;99.90;;;;;;5011640;28;20041;-73
2022/08/16 01:01:58;;;;;;;9.40;6.85;;;21.80;99.90;;;;;;5011652;28;20052;-73
2022/08/16 01:04:26;;;;;;;10.13;7.28;;;21.80;99.90;;;;;;5029645;28;20372;-73
2022/08/16 01:06:51;;;;;;;11.07;7.38;;;21.80;99.90;;;;;;5008575;28;20049;-73
2022/08/16 01:09:18;;;;;;;;;;;21.70;99.90;;;;;;5011431;28;20099;-73
2022/08/16 01:11:45;;;;;;;12.77;8.57;;;21.70;99.90;;;;;;5030018;28;20031;-74
2022/08/16 01:14:34;;;;;;;11.05;6.80;;;21.70;99.90;;;;;;5027552;28;20053;-73
2022/08/16 01:17:01;;;;;;;10.52;7.65;;;21.70;99.90;;;;;;5006778;28;20572;-74
2022/08/16 01:19:55;;;;;;;10.05;7.60;;;21.70;99.90;;;;;;5030596;28;20199;-73
2022/08/16 01:22:37;;;;;;;12.57;7.05;;;21.70;99.90;;;;;;5006237;28;20707;-73
2022/08/16 01:25:10;;;;;;;10.52;7.35;;;21.70;99.90;;;;;;5027394;28;20049;-74
2022/08/16 01:27:41;;;;;;;12.85;7.07;;;21.70;99.90;;;;;;5027089;28;20033;-73
2022/08/16 01:30:17;;;;;;;11.30;7.93;;;21.70;99.90;;;;;;5012970;28;20463;-73
2022/08/16 01:32:43;;;;;;;9.80;7.67;;;21.70;99.90;;;;;;5012222;28;20621;-73
2022/08/16 01:35:21;;;;;;;;;;;21.70;99.90;;;;;;5014993;28;20372;-73
2022/08/16 01:37:49;;;;;;;;;;;21.60;99.90;;;;;;5030847;28;19920;-73
2022/08/16 01:40:17;;;;;;;10.70;8.13;;;21.60;99.90;;;;;;5014906;28;20019;-73
2022/08/16 01:42:45;;;;;;;9.68;7.13;;;21.60;99.90;;;;;;5010811;28;20049;-73
2022/08/16 01:45:11;;;;;;;11.75;8.13;;;21.60;99.90;;;;;;5013504;28;20049;-73
2022/08/16 01:47:38;;;;;;;;;;;21.60;99.90;;;;;;5028971;28;20064;-73
2022/08/16 01:50:05;;;;;;;12.23;8.73;;;21.60;99.90;;;;;;4996102;28;19921;-72
2022/08/16 01:52:31;;;;;;;14.45;9.45;;;21.60;99.90;;;;;;5011391;28;20486;-72
2022/08/16 01:54:57;;;;;;;11.95;8.13;;;21.50;99.90;;;;;;5012132;28;20047;-72
2022/08/16 01:57:23;;;;;;;;;;;21.60;99.90;;;;;;5011481;28;20210;-72
2022/08/16 01:59:48;;;;;;;13.55;8.65;;;21.60;99.90;;;;;;5028058;28;20386;-72
2022/08/16 02:02:15;;;;;;;14.25;8.60;;;21.50;99.90;;;;;;5010460;28;20509;-72
2022/08/16 02:04:43;;;;;;;13.35;9.07;;;21.50;99.90;;;;;;5028794;28;20061;-72
2022/08/16 02:07:11;;;;;;;12.23;8.77;;;21.50;99.90;;;;;;5009460;28;20156;-75
2022/08/16 02:09:38;;;;;;;11.38;8.25;;;21.50;99.90;;;;;;5003608;28;20042;-75
2022/08/16 02:12:07;;;;;;;14.95;9.50;;;21.50;99.90;;;;;;5008531;28;20045;-72
2022/08/16 02:14:34;;;;;;;13.27;9.23;;;21.40;99.90;;;;;;5009602;28;20087;-72
2022/08/16 02:17:02;;;;;;;11.85;7.47;;;21.40;99.90;;;;;;5011810;28;20041;-74
2022/08/16 02:19:31;;;;;;;12.50;8.30;;;21.40;99.90;;;;;;5007923;28;20096;-74
2022/08/16 02:22:00;;;;;;;10.82;8.48;;;21.40;99.90;;;;;;5021881;28;20511;-74
2022/08/16 02:24:26;;;;;;;16.67;9.57;;;21.40;99.90;;;;;;5004983;28;20415;-74
2022/08/16 02:26:52;;;;;;;13.43;9.30;;;21.40;99.90;;;;;;5025179;28;20108;-74
2022/08/16 02:29:18;;;;;;;;;;;21.30;99.90;;;;;;5009223;28;20141;-74
2022/08/16 02:31:45;;;;;;;13.65;9.18;;;21.30;99.90;;;;;;5025826;28;19928;-74
2022/08/16 02:34:12;;;;;;;12.98;9.13;;;21.30;99.90;;;;;;4992009;28;20047;-74
2022/08/16 02:36:38;;;;;;;11.38;8.45;;;21.30;99.90;;;;;;4986108;28;20408;-74
2022/08/16 02:39:04;;;;;;;;;;;21.30;99.90;;;;;;5023917;28;20037;-74
2022/08/16 02:41:30;;;;;;;10.70;7.32;;;21.20;99.90;;;;;;5030628;28;19923;-74
2022/08/16 02:43:55;;;;;;;;;;;21.20;99.90;;;;;;5008670;28;20403;-74
2022/08/16 02:46:21;;;;;;;11.55;8.15;;;21.20;99.90;;;;;;5024969;28;19928;-72
2022/08/16 02:48:47;;;;;;;;;;;21.20;99.90;;;;;;5025436;28;20064;-72
2022/08/16 02:51:12;;;;;;;15.27;9.93;;;21.10;99.90;;;;;;5027527;28;19921;-72
2022/08/16 02:53:42;;;;;;;17.08;8.77;;;21.00;99.90;;;;;;5009571;28;20041;-72
2022/08/16 02:56:11;;;;;;;11.27;8.80;;;21.00;99.90;;;;;;5008040;28;20051;-72
2022/08/16 02:58:37;;;;;;;13.85;9.52;;;21.00;99.90;;;;;;5005702;28;20317;-72
2022/08/16 03:01:03;;;;;;;16.35;8.68;;;20.90;99.90;;;;;;5007161;28;20419;-72
2022/08/16 03:03:28;;;;;;;;;;;20.90;99.90;;;;;;5008113;28;20053;-72
2022/08/16 03:05:54;;;;;;;12.35;9.07;;;20.90;99.90;;;;;;5026608;28;20371;-72
2022/08/16 03:08:22;;;;;;;13.57;8.63;;;20.80;99.90;;;;;;5030583;28;20040;-72
2022/08/16 03:10:48;;;;;;;15.20;8.85;;;20.80;99.90;;;;;;4996076;28;20145;-72
2022/08/16 03:13:16;;;;;;;11.82;8.98;;;20.80;99.90;;;;;;5025636;28;20316;-72
2022/08/16 03:15:43;;;;;;;13.68;9.30;;;20.70;99.90;;;;;;5007155;28;20083;-72
2022/08/16 03:18:09;;;;;;;16.70;9.95;;;20.70;99.90;;;;;;5024455;28;20048;-72
2022/08/16 03:20:35;;;;;;;;;;;20.70;99.90;;;;;;5025399;28;20121;-72
2022/08/16 03:23:02;;;;;;;15.57;10.53;;;20.60;99.90;;;;;;5025714;28;19929;-72
2022/08/16 03:25:29;;;;;;;13.20;9.63;;;20.60;99.90;;;;;;5001548;28;20439;-72
2022/08/16 03:27:54;;;;;;;14.10;10.25;;;20.50;99.90;;;;;;5023630;28;20491;-72
2022/08/16 03:30:22;;;;;;;;;;;20.50;99.90;;;;;;5027830;28;20045;-72
2022/08/16 03:32:48;;;;;;;14.90;10.20;;;20.50;99.90;;;;;;5023254;28;21437;-72
2022/08/16 03:35:15;;;;;;;;;;;20.50;99.90;;;;;;5029430;28;20263;-72
2022/08/16 03:37:43;;;;;;;14.57;9.40;;;20.50;99.90;;;;;;5007344;28;19928;-72
2022/08/16 03:40:10;;;;;;;16.75;10.80;;;20.40;99.90;;;;;;5006756;28;20620;-72
2022/08/16 03:42:35;;;;;;;14.52;10.57;;;20.40;99.90;;;;;;5020464;28;20476;-72
2022/08/16 03:45:01;;;;;;;;;;;20.40;99.90;;;;;;5024882;28;20044;-72
2022/08/16 03:47:28;;;;;;;15.82;10.38;;;20.40;99.90;;;;;;5022336;28;20379;-72
2022/08/16 03:49:54;;;;;;;13.15;10.25;;;20.40;99.90;;;;;;5036717;23;20211;-73
2022/08/16 03:52:21;;;;;;;17.73;10.35;;;20.40;99.90;;;;;;4983234;28;20050;-74
2022/08/16 03:54:47;;;;;;;16.10;10.60;;;20.40;99.90;;;;;;5003312;28;20034;-73
2022/08/16 03:57:13;;;;;;;17.60;10.20;;;20.20;99.90;;;;;;5007249;28;20033;-73
2022/08/16 03:59:39;;;;;;;;;;;20.30;99.90;;;;;;5004297;28;20042;-73
2022/08/16 04:02:05;;;;;;;15.60;9.95;;;20.20;99.90;;;;;;5006353;28;20274;-73
2022/08/16 04:04:31;;;;;;;15.38;10.25;;;20.20;99.90;;;;;;4984119;28;20045;-73
2022/08/16 04:06:57;;;;;;;14.93;10.25;;;20.20;99.90;;;;;;4990518;28;20093;-73
2022/08/16 04:09:23;;;;;;;;;;;20.20;99.90;;;;;;5009561;28;20084;-73
2022/08/16 04:11:48;;;;;;;18.02;10.38;;;20.20;99.90;;;;;;4984705;28;19925;-73
2022/08/16 04:14:14;;;;;;;15.43;10.07;;;20.20;99.90;;;;;;5006973;28;20037;-73
2022/08/16 04:16:40;;;;;;;14.15;9.45;;;20.20;99.90;;;;;;5008281;28;20038;-73
2022/08/16 04:19:05;;;;;;;15.75;10.10;;;20.10;99.90;;;;;;4982760;28;20134;-73
2022/08/16 04:21:33;;;;;;;18.00;11.07;;;20.10;99.90;;;;;;4979330;28;20077;-74
2022/08/16 04:23:59;;;;;;;15.20;10.55;;;20.10;99.90;;;;;;4980622;28;20054;-73
2022/08/16 04:26:25;;;;;;;14.88;10.40;;;20.10;99.90;;;;;;5003564;28;20495;-73
2022/08/16 04:28:50;;;;;;;15.45;10.60;;;20.10;99.90;;;;;;5007576;28;20491;-73
2022/08/16 04:31:16;;;;;;;18.25;10.88;;;20.10;99.90;;;;;;4982065;28;20419;-73
2022/08/16 04:33:42;;;;;;;18.85;11.60;;;20.10;99.90;;;;;;4986592;28;20145;-73
2022/08/16 04:36:10;;;;;;;16.60;10.90;;;20.00;99.90;;;;;;5002170;28;20069;-74
2022/08/16 04:38:36;;;;;;;13.10;9.38;;;20.00;99.90;;;;;;5005182;28;20049;-73
2022/08/16 04:41:02;;;;;;;14.65;9.90;;;20.00;99.90;;;;;;4983961;28;20566;-73
2022/08/16 04:43:28;;;;;;;14.98;10.48;;;20.00;99.90;;;;;;4981388;28;20143;-73
2022/08/16 04:45:54;;;;;;;15.00;10.30;;;19.90;99.90;;;;;;4977899;28;20052;-73
2022/08/16 04:48:19;;;;;;;16.10;10.27;;;19.90;99.90;;;;;;4967291;28;20080;-73
2022/08/16 04:50:46;;;;;;;18.65;10.40;;;19.90;99.90;;;;;;4986536;28;20045;-73
2022/08/16 04:53:12;;;;;;;14.85;10.60;;;19.90;99.90;;;;;;4978240;28;20054;-73
2022/08/16 04:55:37;;;;;;;13.35;9.45;;;19.90;99.90;;;;;;4984961;28;20182;-73
2022/08/16 04:58:04;;;;;;;17.05;10.10;;;19.90;99.90;;;;;;4986883;28;20045;-74
2022/08/16 05:00:33;;;;;;;15.50;10.20;;;19.90;99.90;;;;;;4984680;28;20050;-73
2022/08/16 05:03:03;;;;;;;15.73;10.13;;;19.90;99.90;;;;;;4975899;28;20046;-73
2022/08/16 05:05:29;;;;;;;13.68;9.32;;;19.90;99.90;;;;;;4984534;28;20085;-73
2022/08/16 05:07:54;;;;;;;14.25;10.43;;;19.80;99.90;;;;;;5003000;28;20065;-73
2022/08/16 05:10:20;;;;;;;15.43;10.43;;;19.90;99.90;;;;;;5004495;28;20090;-73
2022/08/16 05:12:46;;;;;;;13.25;9.45;;;19.90;99.90;;;;;;4964229;28;20178;-73
2022/08/16 05:15:12;;;;;;;14.75;10.20;;;19.90;99.90;;;;;;4985539;28;20053;-73
2022/08/16 05:17:38;;;;;;;17.55;11.85;;;19.90;99.90;;;;;;4981219;28;20491;-73
2022/08/16 05:20:05;;;;;;;14.15;9.88;;;19.90;99.90;;;;;;4989040;28;20488;-74
2022/08/16 05:22:31;;;;;;;17.65;10.43;;;19.90;99.90;;;;;;4984424;28;20038;-73
2022/08/16 05:24:57;;;;;;;13.85;9.88;;;19.90;99.90;;;;;;4998560;28;20499;-73
2022/08/16 05:27:23;;;;;;;14.05;9.75;;;19.90;99.90;;;;;;4974612;28;20304;-73
2022/08/16 05:29:48;;;;;;;15.77;10.43;;;19.90;99.90;;;;;;4988893;28;20138;-73
2022/08/16 05:32:14;;;;;;;12.38;9.30;;;20.00;99.90;;;;;;4981003;28;20049;-73
2022/08/16 05:34:39;;;;;;;17.15;9.70;;;20.00;99.90;;;;;;5007943;28;20042;-75
2022/08/16 05:37:05;;;;;;;15.52;9.90;;;20.00;99.90;;;;;;4987134;28;20065;-74
2022/08/16 05:39:31;;;;;;;14.15;9.02;;;20.00;99.90;;;;;;4990870;28;20042;-74
2022/08/16 05:41:56;;;;;;;13.10;9.02;;;20.00;99.90;;;;;;4986627;28;20049;-74
2022/08/16 05:44:23;;;;;;;16.13;9.93;;;20.00;99.90;;;;;;4983976;28;20084;-74
2022/08/16 05:46:59;;;;;;;13.75;9.20;;;20.00;99.90;;;;;;4997333;28;20122;-74
2022/08/16 05:49:28;;;;;;;14.93;9.45;;;20.10;99.90;;;;;;5008483;28;20034;-81
2022/08/16 05:51:54;;;;;;;12.65;9.25;;;20.10;99.90;;;;;;4980090;28;20199;-80
2022/08/16 05:54:20;;;;;;;14.95;9.65;;;20.10;99.90;;;;;;4977887;28;20045;-81
2022/08/16 05:56:46;;;;;;;13.82;9.48;;;20.20;99.90;;;;;;4989491;28;20073;-79
2022/08/16 05:59:14;;;;;;;14.50;9.80;;;20.20;99.90;;;;;;4977664;28;20526;-82
2022/08/16 06:01:43;;;;;;;14.10;9.68;;;20.20;99.90;;;;;;4975115;28;20041;-80
2022/08/16 06:04:11;;;;;;;15.63;10.02;;;20.20;99.90;;;;;;4976427;28;20045;-82
2022/08/16 06:06:38;;;;;;;17.95;11.07;;;20.30;99.90;;;;;;4990639;28;20492;-77
2022/08/16 06:09:04;;;;;;;15.05;9.35;;;20.30;99.90;;;;;;4999816;28;20041;-78
2022/08/16 06:11:30;;;;;;;;;;;20.30;99.90;;;;;;4978651;28;20379;-77
2022/08/16 06:13:56;;;;;;;14.98;9.50;;;20.30;99.90;;;;;;5007817;28;20295;-74
2022/08/16 06:16:21;;;;;;;15.73;10.38;;;20.30;99.90;;;;;;5003979;28;20033;-78
2022/08/16 06:18:47;;;;;;;17.30;10.18;;;20.40;99.90;;;;;;5011476;28;20080;-74
2022/08/16 06:21:14;;;;;;;15.98;10.40;;;20.40;99.90;;;;;;5009779;28;20173;-77
2022/08/16 06:23:40;;;;;;;17.02;10.75;;;20.40;99.90;;;;;;4986398;28;20066;-74
2022/08/16 06:26:07;;;;;;;14.18;10.50;;;20.50;99.90;;;;;;5008994;28;20710;-75
2022/08/16 06:28:33;;;;;;;19.50;11.57;;;20.50;99.90;;;;;;5008008;28;20049;-79
2022/08/16 06:30:58;;;;;;;;;;;20.50;99.90;;;;;;5003561;28;20042;-74
2022/08/16 06:33:24;;;;;;;15.57;9.95;;;20.60;99.90;;;;;;4990867;28;19940;-75
2022/08/16 06:35:51;;;;;;;14.65;9.98;;;20.60;99.90;;;;;;5016041;28;20037;-75
2022/08/16 06:38:17;;;;;;;17.55;11.60;;;20.60;99.90;;;;;;4989754;28;20414;-74
2022/08/16 06:40:42;;;;;;;20.08;11.80;;;20.70;99.90;;;;;;5013054;28;20422;-74
2022/08/16 06:43:08;;;;;;;17.08;10.95;;;20.70;99.90;;;;;;5004844;28;20045;-74
2022/08/16 06:45:37;;;;;;;20.80;12.13;;;20.70;99.90;;;;;;4985402;28;20057;-74
2022/08/16 06:48:06;;;;;;;18.63;11.02;;;20.80;99.90;;;;;;4992335;28;20372;-74
2022/08/16 06:50:32;;;;;;;19.38;12.10;;;20.80;99.90;;;;;;5003423;28;20037;-74
2022/08/16 06:53:00;;;;;;;;;;;20.80;99.90;;;;;;5001736;28;20704;-74
2022/08/16 06:55:26;;;;;;;18.30;11.18;;;20.90;99.90;;;;;;5004172;28;19971;-74
2022/08/16 06:57:53;;;;;;;15.95;11.25;;;20.90;99.90;;;;;;4980331;28;20508;-74
2022/08/16 07:00:20;;;;;;;17.20;11.38;;;21.00;99.90;;;;;;4982353;28;20389;-75
2022/08/16 07:02:46;;;;;;;16.90;11.20;;;21.00;99.90;;;;;;4983696;28;20048;-74
2022/08/16 07:05:12;;;;;;;;;;;21.10;99.90;;;;;;5006538;28;20045;-74
2022/08/16 07:07:38;;;;;;;18.17;11.43;;;21.20;99.90;;;;;;4987313;28;19949;-74
2022/08/16 07:10:06;;;;;;;16.27;11.13;;;21.20;99.90;;;;;;4996822;28;20072;-78
2022/08/16 07:12:32;;;;;;;20.02;13.35;;;21.20;99.90;;;;;;4988129;28;20412;-75
2022/08/16 07:14:59;;;;;;;17.67;12.13;;;21.30;99.90;;;;;;5008082;28;20472;-75
2022/08/16 07:17:26;;;;;;;20.73;12.88;;;21.40;99.90;;;;;;4983647;28;20037;-83
2022/08/16 07:19:52;;;;;;;21.58;13.90;;;21.50;99.90;;;;;;4987515;28;20052;-74
2022/08/16 07:22:18;;;;;;;;;;;21.60;99.90;;;;;;4971817;28;20053;-75
2022/08/16 07:24:44;;;;;;;18.05;11.73;;;21.60;99.90;;;;;;5000335;28;19932;-74
2022/08/16 07:27:09;;;;;;;;;;;21.70;99.90;;;;;;4988105;28;20405;-74
2022/08/16 07:29:35;;;;;;;21.13;12.75;;;21.80;99.90;;;;;;5007187;28;19957;-73
2022/08/16 07:32:01;;;;;;;21.25;13.18;;;21.90;99.90;;;;;;4981412;28;20123;-73
2022/08/16 07:34:27;;;;;;;19.50;12.38;;;22.00;99.90;;;;;;5001301;28;20038;-73
2022/08/16 07:36:53;;;;;;;18.38;13.18;;;22.10;99.90;;;;;;5003026;28;20212;-74
2022/08/16 07:39:19;;;;;;;;;;;22.10;99.90;;;;;;5004880;28;20044;-74
2022/08/16 07:41:44;;;;;;;21.95;13.32;;;22.20;99.90;;;;;;4985244;28;19917;-74
2022/08/16 07:44:10;;;;;;;;;;;22.30;99.90;;;;;;4985390;28;20054;-73
2022/08/16 07:46:35;;;;;;;17.33;12.05;;;22.40;99.90;;;;;;5000395;28;20105;-73
2022/08/16 07:49:03;;;;;;;;;;;22.50;99.90;;;;;;5001894;28;20034;-73
2022/08/16 07:51:31;;;;;;;;;;;22.60;99.90;;;;;;5001324;28;19921;-73
2022/08/16 07:53:57;;;;;;;20.63;13.00;;;22.60;99.90;;;;;;5003134;28;20442;-73
2022/08/16 07:56:23;;;;;;;;;;;22.70;99.90;;;;;;4983907;28;20121;-74
2022/08/16 07:58:48;;;;;;;23.42;13.35;;;22.70;99.90;;;;;;5005056;28;20152;-73
2022/08/16 08:01:14;;;;;;;21.83;14.20;;;22.80;99.90;;;;;;4995322;28;20042;-74
2022/08/16 08:03:42;;;;;;;;;;;22.80;99.90;;;;;;4966265;28;20052;-73
2022/08/16 08:06:08;;;;;;;20.05;12.55;;;22.90;99.90;;;;;;4996520;28;19932;-74
2022/08/16 08:08:33;;;;;;;;;;;22.90;99.90;;;;;;4995288;28;20045;-74
2022/08/16 08:10:59;;;;;;;20.25;12.93;;;22.90;99.90;;;;;;4994451;28;19928;-73
2022/08/16 08:13:24;;;;;;;;;;;23.00;99.90;;;;;;5004079;28;20061;-73
2022/08/16 08:15:50;;;;;;;21.02;12.80;;;23.00;99.90;;;;;;4960638;28;19925;-73
2022/08/16 08:18:16;;;;;;;;;;;23.10;99.90;;;;;;4983531;28;20097;-74
2022/08/16 08:20:44;;;;;;;20.13;12.48;;;23.10;99.90;;;;;;4989066;28;20379;-74
2022/08/16 08:23:11;;;;;;;17.73;12.55;;;23.20;99.90;;;;;;4985475;28;20495;-74
2022/08/16 08:25:41;;;;;;;18.15;11.90;;;23.30;99.90;;;;;;4981058;28;20164;-74
2022/08/16 08:28:08;;;;;;;19.73;12.43;;;23.40;99.90;;;;;;4976100;28;20056;-74
2022/08/16 08:30:34;;;;;;;15.93;10.68;;;23.30;99.90;;;;;;5002619;28;20041;-74
2022/08/16 08:33:00;;;;;;;17.30;11.77;;;23.40;99.90;;;;;;4961717;28;20033;-73
2022/08/16 08:35:25;;;;;;;;;;;23.40;99.90;;;;;;4992373;28;20036;-74
2022/08/16 08:37:51;;;;;;;15.05;9.07;;;23.50;99.90;;;;;;5000150;28;19917;-74
2022/08/16 08:40:17;;;;;;;;;;;23.50;99.90;;;;;;4986036;28;20041;-74
2022/08/16 08:42:44;;;;;;;13.45;7.80;;;23.60;99.90;;;;;;4992960;28;19918;-74
2022/08/16 08:45:12;;;;;;;13.65;8.73;;;23.60;99.90;;;;;;4998265;28;20048;-74
2022/08/16 08:47:38;;;;;;;13.48;7.97;;;23.70;99.90;;;;;;4983310;28;20100;-74
2022/08/16 08:50:04;;;;;;;;;;;23.70;99.90;;;;;;4987181;28;20363;-75
2022/08/16 08:52:30;;;;;;;14.52;9.25;;;23.80;99.90;;;;;;4985366;28;19929;-73
2022/08/16 08:54:55;;;;;;;;;;;23.80;99.90;;;;;;5002415;28;20057;-75
2022/08/16 08:57:21;;;;;;;16.33;10.60;;;23.90;99.90;;;;;;5004527;28;19965;-75
2022/08/16 08:59:47;;;;;;;;;;;23.90;99.90;;;;;;5000606;28;20034;-75
2022/08/16 09:02:15;;;;;;;19.65;9.57;;;23.90;99.90;;;;;;4998415;28;19971;-74
2022/08/16 09:04:41;;;;;;;13.85;8.75;;;24.00;99.90;;;;;;4972824;28;20061;-74
2022/08/16 09:07:07;;;;;;;16.90;10.38;;;24.10;99.90;;;;;;5008339;28;20076;-75
2022/08/16 09:09:32;;;;;;;15.25;10.15;;;24.20;99.90;;;;;;5001588;28;20500;-73
2022/08/16 09:11:58;;;;;;;;;;;24.30;99.90;;;;;;4985403;28;20041;-75
2022/08/16 09:14:24;;;;;;;12.82;9.18;;;24.30;99.90;;;;;;4986102;28;19918;-74
2022/08/16 09:16:50;;;;;;;;;;;24.30;99.90;;;;;;4986398;28;20068;-75
2022/08/16 09:19:16;;;;;;;12.00;7.90;;;24.40;99.90;;;;;;5013999;28;20011;-75
2022/08/16 09:21:42;;;;;;;13.43;9.20;;;24.40;99.90;;;;;;4988182;28;20049;-75
2022/08/16 09:24:08;;;;;;;11.50;8.18;;;24.50;99.90;;;;;;4986117;28;20123;-75
2022/08/16 09:26:34;;;;;;;12.15;7.45;;;24.50;99.90;;;;;;5013712;28;20084;-75
2022/08/16 09:29:00;;;;;;;11.88;7.90;;;24.60;99.90;;;;;;5003303;28;20452;-75
2022/08/16 09:31:25;;;;;;;;;;;24.70;99.90;;;;;;4994115;28;20042;-75
2022/08/16 09:33:54;;;;;;;16.40;8.55;;;24.80;99.90;;;;;;4993723;28;20549;-74
2022/08/16 09:36:23;;;;;;;9.52;7.80;;;24.80;99.90;;;;;;4986479;28;20042;-73
2022/08/16 09:38:49;;;;;;;15.52;8.00;;;24.90;99.90;;;;;;5006405;28;20289;-75
2022/08/16 09:41:15;;;;;;;11.93;7.93;;;25.00;99.90;;;;;;5006333;28;20439;-74
2022/08/16 09:43:42;;;;;;;9.77;7.00;;;25.10;99.90;;;;;;5008358;28;20531;-74
2022/08/16 09:46:09;;;;;;;8.65;6.40;;;25.20;99.90;;;;;;4976729;28;20049;-75
2022/08/16 09:48:40;;;;;;;7.97;5.78;;;25.20;99.90;;;;;;5021436;23;20133;-71
2022/08/16 09:51:11;;;;;;;9.25;7.00;;;25.20;99.90;;;;;;5012199;28;20050;-71
2022/08/16 09:53:37;;;;;;;10.68;7.63;;;25.30;99.90;;;;;;5008567;28;20168;-71
2022/08/16 09:56:12;;;;;;;10.73;7.30;;;25.40;99.90;;;;;;5009350;28;20116;-71
2022/08/16 09:58:38;;;;;;;11.30;7.80;;;25.50;99.90;;;;;;5023594;28;20462;-71
2022/08/16 10:01:03;;;;;;;8.55;6.65;;;25.60;99.90;;;;;;5008516;28;20500;-71
2022/08/16 10:03:29;;;;;;;10.05;7.63;;;25.60;99.90;;;;;;5007329;28;20041;-71
2022/08/16 10:05:55;;;;;;;11.98;6.80;;;25.70;99.90;;;;;;5011659;28;20095;-71
2022/08/16 10:08:20;;;;;;;10.77;7.32;;;25.70;99.90;;;;;;5031685;28;20043;-71
2022/08/16 10:13:33;;;;;;;9.23;6.63;;;25.90;99.90;;;;;;5027702;28;20123;-71
2022/08/16 10:15:59;;;;;;;11.30;6.88;;;25.90;99.90;;;;;;5030037;28;20044;-71
2022/08/16 10:18:29;;;;;;;11.52;6.32;;;26.00;99.90;;;;;;5014309;28;20099;-71
2022/08/16 10:20:57;;;;;;;10.55;6.75;;;26.10;99.90;;;;;;5026386;28;20095;-71
2022/08/16 10:23:23;;;;;;;11.95;7.10;;;26.20;99.90;;;;;;5009122;28;20052;-71
2022/08/16 10:25:49;;;;;;;11.55;7.40;;;26.20;99.90;;;;;;5026852;28;20407;-71
2022/08/16 10:28:15;;;;;;;9.05;7.18;;;26.30;99.90;;;;;;5011799;28;20034;-71
2022/08/16 10:30:43;;;;;;;9.50;6.85;;;26.40;99.90;;;;;;5027703;28;20041;-71
2022/08/16 10:33:12;;;;;;;9.15;7.05;;;26.40;99.90;;;;;;5009053;28;20077;-71
2022/08/16 10:35:40;;;;;;;9.23;5.80;;;26.40;99.90;;;;;;5028973;28;20398;-71
2022/08/16 10:38:06;;;;;;;7.65;6.25;;;26.50;99.90;;;;;;5009689;28;20052;-71
2022/08/16 10:40:31;;;;;;;9.07;5.95;;;26.50;99.90;;;;;;5024264;28;20052;-71
2022/08/16 10:43:00;;;;;;;6.57;4.88;;;26.50;99.90;;;;;;5025407;28;20559;-71
2022/08/16 10:45:31;;;;;;;7.25;5.25;;;26.60;99.90;;;;;;5027321;28;20077;-71
2022/08/16 10:47:58;;;;;;;8.00;5.43;;;26.70;99.90;;;;;;5025344;28;20632;-72
2022/08/16 10:50:24;;;;;;;8.45;6.25;;;26.80;99.90;;;;;;5003464;28;20030;-71
2022/08/16 10:52:52;;;;;;;11.05;6.97;;;26.90;99.90;;;;;;5016531;28;20410;-71
2022/08/16 10:55:18;;;;;;;10.20;7.50;;;26.90;99.90;;;;;;5010305;28;20045;-71
2022/08/16 10:57:44;;;;;;;10.63;8.07;;;27.00;99.90;;;;;;5004159;28;20057;-71
2022/08/16 11:00:13;;;;;;;10.63;6.90;;;27.10;99.90;;;;;;5008150;28;20057;-71
2022/08/16 11:02:41;;;;;;;10.40;6.97;;;27.10;99.90;;;;;;5024419;28;20081;-71
2022/08/16 11:05:11;;;;;;;9.95;6.38;;;27.20;99.90;;;;;;5008612;28;20045;-71
2022/08/16 11:07:43;;;;;;;9.38;6.50;;;27.20;99.90;;;;;;4991061;28;20037;-71
2022/08/16 11:10:10;;;;;;;9.32;6.40;;;27.30;99.90;;;;;;5022870;28;20045;-71
2022/08/16 11:12:35;;;;;;;12.27;7.10;;;27.40;99.90;;;;;;5025042;28;20042;-71
2022/08/16 11:15:03;;;;;;;10.88;5.88;;;27.40;99.90;;;;;;5007216;28;20578;-71
2022/08/16 11:17:28;;;;;;;10.63;7.20;;;27.40;99.90;;;;;;5003601;28;20045;-71
2022/08/16 11:19:54;;;;;;;10.27;7.45;;;27.50;99.90;;;;;;5002586;28;20040;-72
2022/08/16 11:22:20;;;;;;;10.75;8.45;;;27.60;99.90;;;;;;5023687;28;20096;-71
2022/08/16 11:24:45;;;;;;;11.52;8.30;;;27.60;99.90;;;;;;5006705;28;20033;-71
2022/08/16 11:27:15;;;;;;;9.27;6.65;;;27.60;99.90;;;;;;5006284;28;20049;-71
2022/08/16 11:29:41;;;;;;;13.73;10.07;;;27.60;99.90;;;;;;4989934;28;20030;-71
2022/08/16 11:32:06;;;;;;;13.25;9.38;;;27.60;99.90;;;;;;5025686;28;20662;-72
2022/08/16 11:34:32;;;;;;;10.98;8.43;;;27.60;99.90;;;;;;5007032;28;20037;-72
2022/08/16 11:36:59;;;;;;;13.52;9.88;;;27.70;99.90;;;;;;5006484;28;20246;-72
2022/08/16 11:39:26;;;;;;;17.75;10.48;;;27.70;99.90;;;;;;5004362;28;20037;-72
2022/08/16 11:41:51;;;;;;;13.25;10.20;;;27.80;99.90;;;;;;5007089;28;20045;-72
2022/08/16 11:44:17;;;;;;;15.27;10.05;;;27.80;99.90;;;;;;5006502;28;20529;-72
2022/08/16 11:46:42;;;;;;;15.95;11.25;;;27.70;99.90;;;;;;5007116;28;20114;-72
2022/08/16 11:49:08;;;;;;;18.65;11.77;;;27.70;99.90;;;;;;5025764;28;20063;-72
2022/08/16 11:51:34;;;;;;;19.00;12.55;;;27.60;99.90;;;;;;5023305;28;20041;-72
2022/08/16 11:54:00;;;;;;;16.25;11.10;;;27.60;99.90;;;;;;4986037;28;20602;-72
2022/08/16 11:56:26;;;;;;;15.50;10.43;;;27.70;99.90;;;;;;5011897;28;20594;-72
2022/08/16 11:58:52;;;;;;;15.43;11.27;;;27.80;99.90;;;;;;5011375;28;20048;-72
2022/08/16 12:01:18;;;;;;;14.02;9.80;;;27.70;99.90;;;;;;5022612;28;20038;-72
2022/08/16 12:03:44;;;;;;;15.07;11.70;;;27.50;99.90;;;;;;4994188;28;20049;-72
2022/08/16 12:06:15;;;;;;;15.50;10.82;;;27.50;99.90;;;;;;5003839;28;20195;-72
2022/08/16 12:08:43;;;;;;;18.38;10.60;;;27.40;99.90;;;;;;5022736;28;20121;-72
2022/08/16 12:11:10;;;;;;;14.80;10.57;;;27.50;99.90;;;;;;5004963;28;20112;-72
2022/08/16 12:13:36;;;;;;;14.85;10.50;;;27.40;99.90;;;;;;5005176;28;20053;-72
2022/08/16 12:16:03;;;;;;;15.18;11.27;;;27.40;99.90;;;;;;4998651;28;20116;-72
2022/08/16 12:18:29;;;;;;;12.85;9.80;;;27.50;99.90;;;;;;5006029;28;20487;-72
2022/08/16 12:20:55;;;;;;;12.95;9.57;;;27.60;99.90;;;;;;5022434;28;20052;-72
2022/08/16 12:23:22;;;;;;;16.63;12.30;;;27.60;99.90;;;;;;5020965;28;20067;-73
2022/08/16 12:25:48;;;;;;;15.73;12.27;;;27.60;99.90;;;;;;5005826;28;20033;-72
2022/08/16 12:28:14;;;;;;;18.00;12.43;;;27.40;99.90;;;;;;5022615;28;20418;-72
2022/08/16 12:30:42;;;;;;;16.60;12.65;;;27.40;99.90;;;;;;5002437;28;20078;-73
2022/08/16 12:33:14;;;;;;;12.55;9.00;;;27.40;99.90;;;;;;5007232;28;20527;-72
2022/08/16 12:35:41;;;;;;;12.75;8.60;;;27.40;99.90;;;;;;5020410;28;20380;-73
2022/08/16 12:38:07;;;;;;;11.50;7.90;;;27.60;99.90;;;;;;5014332;28;20037;-72
2022/08/16 12:40:37;;;;;;;9.55;7.28;;;27.80;99.90;;;;;;5005398;28;20049;-73
2022/08/16 12:43:05;;;;;;;7.70;6.20;;;27.90;99.90;;;;;;5022631;28;20078;-73
2022/08/16 12:45:36;;;;;;;9.07;5.88;;;28.00;99.90;;;;;;5007565;28;20041;-72
2022/08/16 12:50:46;;;;;;;8.48;5.70;;;28.30;99.80;;;;;;5022948;28;20044;-72